Time;durP1;ratioP1;P1;durP2;ratioP2;P2;SDS_P1;SDS_P2;PMS_P1;PMS_P2;Temp;Humidity;BMP_temperature;BMP_pressure;BME280_temperature;BME280_humidity;BME280_pressure;Samples;Min_cycle;Max_cycle;Signal;HPM_P1;HPM_P2
2023/09/08 00:00:46;;;;;;;8.95;5.57;;;;;;;17.24;100.00;101012.31;5590517;31;33822;-68
2023/09/08 00:03:49;;;;;;;8.27;5.15;;;;;;;17.16;100.00;101021.34;5590422;31;33875;-68
2023/09/08 00:06:52;;;;;;;7.70;5.40;;;;;;;17.21;100.00;101010.88;5590342;31;34177;-68
2023/09/08 00:09:56;;;;;;;7.32;5.12;;;;;;;17.03;100.00;101018.59;5590075;31;34753;-68
2023/09/08 00:12:59;;;;;;;11.45;5.40;;;;;;;16.94;100.00;101009.84;5589963;31;33571;-68
2023/09/08 00:16:02;;;;;;;7.93;5.22;;;;;;;16.85;100.00;101018.19;5589990;31;33786;-68
2023/09/08 00:19:05;;;;;;;6.43;5.05;;;;;;;16.85;100.00;101024.41;5590067;31;33936;-68
2023/09/08 00:22:08;;;;;;;10.10;5.35;;;;;;;16.87;100.00;101022.38;5589891;31;33816;-67
2023/09/08 00:25:10;;;;;;;9.25;5.22;;;;;;;16.84;100.00;101024.59;5589932;31;34052;-68
2023/09/08 00:28:14;;;;;;;8.77;5.10;;;;;;;16.83;100.00;101022.94;5576278;31;34142;-68
2023/09/08 00:31:16;;;;;;;7.32;5.65;;;;;;;16.78;100.00;101017.34;5589853;31;33965;-68
2023/09/08 00:34:19;;;;;;;9.88;5.68;;;;;;;16.76;100.00;101033.59;5589892;31;33770;-68
2023/09/08 00:37:22;;;;;;;7.28;5.35;;;;;;;16.78;100.00;101026.22;5589612;31;35271;-68
2023/09/08 00:40:27;;;;;;;11.80;5.57;;;;;;;16.74;100.00;101016.91;5590154;31;34052;-68
2023/09/08 00:43:30;;;;;;;13.05;5.72;;;;;;;16.64;100.00;101012.87;5589735;31;33821;-68
2023/09/08 00:46:33;;;;;;;9.90;5.37;;;;;;;16.51;100.00;101010.84;5589780;31;33903;-68
2023/09/08 00:49:36;;;;;;;10.20;5.60;;;;;;;16.43;100.00;101003.78;5589771;31;33958;-67
2023/09/08 00:52:40;;;;;;;16.05;5.90;;;;;;;16.33;100.00;101002.44;5589698;31;34094;-68
2023/09/08 00:55:43;;;;;;;11.68;6.18;;;;;;;16.24;100.00;101000.91;5590138;31;33850;-68
2023/09/08 00:58:46;;;;;;;9.43;5.50;;;;;;;16.19;100.00;101005.97;5589897;31;34485;-68
2023/09/08 01:01:49;;;;;;;10.05;5.70;;;;;;;16.12;100.00;100999.75;5589462;31;33846;-68
2023/09/08 01:04:52;;;;;;;10.35;6.30;;;;;;;16.11;100.00;101000.75;5590059;31;33849;-67
2023/09/08 01:07:55;;;;;;;10.52;6.00;;;;;;;16.03;100.00;100990.97;5589498;31;33988;-67
2023/09/08 01:10:59;;;;;;;11.23;5.60;;;;;;;16.14;100.00;100993.16;5589735;31;34675;-68
2023/09/08 01:14:03;;;;;;;13.40;5.18;;;;;;;16.06;100.00;100988.78;5588722;31;33922;-68
2023/09/08 01:17:06;;;;;;;8.20;5.47;;;;;;;16.18;100.00;100989.09;5589558;31;33882;-68
2023/09/08 01:20:38;;;;;;;10.35;5.85;;;;;;;16.17;100.00;100986.63;5589613;31;34692;-68
2023/09/08 01:23:50;;;;;;;6.60;5.47;;;;;;;16.06;100.00;100995.97;5589347;31;33849;-68
2023/09/08 01:26:53;;;;;;;10.88;5.78;;;;;;;15.96;100.00;100990.91;5589762;31;33809;-68
2023/09/08 01:29:57;;;;;;;17.05;6.20;;;;;;;15.96;100.00;100993.59;5588749;31;33752;-67
2023/09/08 01:33:00;;;;;;;8.07;5.65;;;;;;;15.91;100.00;100982.63;5589362;31;34590;-68
2023/09/08 01:36:04;;;;;;;8.85;5.80;;;;;;;16.01;100.00;100987.66;5589274;31;33996;-68
2023/09/08 01:39:06;;;;;;;8.57;5.93;;;;;;;16.11;100.00;100990.88;5589167;31;34757;-67
2023/09/08 01:42:10;;;;;;;13.45;5.78;;;;;;;16.00;100.00;100989.50;5589110;31;34026;-68
2023/09/08 01:45:12;;;;;;;10.60;5.47;;;;;;;16.06;100.00;100987.94;5589361;31;33942;-68
2023/09/08 01:48:16;;;;;;;9.98;5.43;;;;;;;16.01;100.00;100983.16;5589130;31;33859;-68
2023/09/08 01:51:19;;;;;;;8.27;5.45;;;;;;;16.06;100.00;100988.78;5589118;31;33890;-68
2023/09/08 01:54:22;;;;;;;7.53;5.28;;;;;;;16.06;100.00;100982.59;5589014;31;33847;-68
2023/09/08 01:57:25;;;;;;;11.43;5.90;;;;;;;16.04;100.00;100982.75;5589075;31;34776;-68
2023/09/08 02:00:28;;;;;;;8.20;5.32;;;;;;;15.96;100.00;100987.41;5589421;31;33822;-68
2023/09/08 02:03:32;;;;;;;15.57;5.85;;;;;;;15.82;100.00;100980.25;5588252;31;34460;-68
2023/09/08 02:06:35;;;;;;;8.57;5.80;;;;;;;15.72;100.00;100980.53;5588906;31;33901;-68
2023/09/08 02:09:39;;;;;;;8.57;5.90;;;;;;;15.62;100.00;100994.19;5588760;31;33967;-68
2023/09/08 02:12:42;;;;;;;10.63;6.03;;;;;;;15.61;100.00;100999.72;5587870;31;34071;-68
2023/09/08 02:15:44;;;;;;;9.05;5.78;;;;;;;15.56;100.00;100996.75;5588782;31;33916;-68
2023/09/08 02:18:48;;;;;;;9.93;5.95;;;;;;;15.55;100.00;100990.59;5588762;31;34608;-68
2023/09/08 02:21:50;;;;;;;6.90;5.57;;;;;;;15.47;100.00;100993.31;5588567;31;33889;-68
2023/09/08 02:24:54;;;;;;;12.32;5.95;;;;;;;15.50;100.00;100989.44;5588490;31;33863;-68
2023/09/08 02:27:57;;;;;;;8.23;6.03;;;;;;;15.51;100.00;100980.44;5588604;31;33813;-67
2023/09/08 02:30:59;;;;;;;10.93;5.87;;;;;;;15.45;100.00;100981.97;5588878;31;33900;-68
2023/09/08 02:34:04;;;;;;;8.18;5.97;;;;;;;15.40;100.00;100981.69;5588716;31;34524;-67
2023/09/08 02:37:07;;;;;;;7.85;5.78;;;;;;;15.45;100.00;100986.50;5588434;31;33843;-68
2023/09/08 02:40:10;;;;;;;9.15;6.03;;;;;;;15.38;100.00;100988.25;5588254;31;34127;-68
2023/09/08 02:43:13;;;;;;;8.57;6.10;;;;;;;15.27;100.00;100984.19;5588267;31;33955;-68
2023/09/08 02:46:17;;;;;;;10.77;5.97;;;;;;;15.33;100.00;100988.81;5588390;31;34621;-68
2023/09/08 02:49:19;;;;;;;9.55;5.72;;;;;;;15.34;100.00;100981.63;5588124;31;33932;-68
2023/09/08 02:52:23;;;;;;;10.70;5.90;;;;;;;15.42;100.00;100985.03;5588354;31;33911;-68
2023/09/08 02:55:26;;;;;;;9.30;5.80;;;;;;;15.41;100.00;100982.53;5588053;31;34068;-68
2023/09/08 02:58:30;;;;;;;9.63;6.20;;;;;;;15.45;100.00;100981.16;5587936;31;33778;-68
2023/09/08 03:01:33;;;;;;;8.15;5.95;;;;;;;15.42;100.00;100984.19;5587930;31;34588;-68
2023/09/08 03:04:36;;;;;;;8.35;5.82;;;;;;;15.37;100.00;100987.41;5587854;31;33775;-68
2023/09/08 03:07:39;;;;;;;8.15;5.70;;;;;;;15.28;100.00;100983.19;5588178;31;34935;-68
2023/09/08 03:10:42;;;;;;;8.10;5.78;;;;;;;15.21;100.00;100985.75;5587711;31;34128;-68
2023/09/08 03:13:45;;;;;;;11.63;6.20;;;;;;;15.16;100.00;100985.47;5587631;31;33955;-68
2023/09/08 03:16:48;;;;;;;11.02;5.78;;;;;;;15.05;100.00;100995.78;5587614;31;35266;-68
2023/09/08 03:19:51;;;;;;;9.30;5.87;;;;;;;15.17;100.00;100988.97;5587627;31;33865;-67
2023/09/08 03:22:54;;;;;;;9.63;5.50;;;;;;;15.17;100.00;100997.00;5587568;31;33810;-68
2023/09/08 03:25:57;;;;;;;13.00;6.10;;;;;;;15.10;100.00;100990.72;5588710;31;34036;-68
2023/09/08 03:29:00;;;;;;;11.35;5.90;;;;;;;14.98;100.00;101001.03;5590571;31;34652;-68
2023/09/08 03:32:03;;;;;;;11.30;6.37;;;;;;;14.94;100.00;100993.53;5590413;31;34485;-67
2023/09/08 03:35:08;;;;;;;9.02;5.40;;;;;;;14.87;100.00;101000.59;5590395;31;34499;-67
2023/09/08 03:38:10;;;;;;;9.73;6.07;;;;;;;14.91;100.00;100996.59;5590483;31;34009;-67
2023/09/08 03:41:14;;;;;;;7.78;5.93;;;;;;;14.91;100.00;100999.25;5590229;31;34077;-67
2023/09/08 03:44:17;;;;;;;8.38;6.12;;;;;;;14.88;100.00;100999.59;5590108;31;33888;-67
2023/09/08 03:47:20;;;;;;;10.13;5.95;;;;;;;14.85;100.00;100999.97;5590306;31;33819;-67
2023/09/08 03:50:23;;;;;;;8.48;5.87;;;;;;;14.86;100.00;100999.81;5590230;31;33713;-68
2023/09/08 03:53:26;;;;;;;9.63;6.18;;;;;;;14.91;100.00;100996.59;5590219;31;33910;-68
2023/09/08 03:56:29;;;;;;;7.20;5.78;;;;;;;14.86;100.00;100994.47;5590207;31;33824;-68
2023/09/08 03:59:32;;;;;;;12.57;6.20;;;;;;;14.89;100.00;100998.59;5589831;31;33843;-68
2023/09/08 04:02:35;;;;;;;8.95;6.43;;;;;;;14.91;100.00;101000.06;5590155;31;33816;-68
2023/09/08 04:05:38;;;;;;;10.25;5.95;;;;;;;14.97;100.00;101001.19;5590172;31;33800;-68
2023/09/08 04:08:41;;;;;;;9.38;6.25;;;;;;;14.96;100.00;101005.69;5590261;31;33852;-68
2023/09/08 04:11:44;;;;;;;9.82;6.37;;;;;;;14.96;100.00;101005.69;5589802;31;34188;-69
2023/09/08 04:14:48;;;;;;;10.98;6.53;;;;;;;14.91;100.00;101005.41;5590375;31;33846;-68
2023/09/08 04:17:52;;;;;;;10.23;6.47;;;;;;;14.95;100.00;101001.41;5589571;31;33561;-68
2023/09/08 04:20:54;;;;;;;11.18;6.20;;;;;;;14.90;100.00;101000.28;5589972;31;34064;-68
2023/09/08 04:23:58;;;;;;;10.35;6.28;;;;;;;14.95;100.00;101013.91;5589806;31;33799;-68
2023/09/08 04:27:00;;;;;;;13.40;6.32;;;;;;;14.91;100.00;101010.75;5590291;31;33915;-68
2023/09/08 04:30:07;;;;;;;15.10;7.25;;;;;;;14.95;100.00;101012.09;5589903;31;34509;-68
2023/09/08 04:33:09;;;;;;;11.73;6.55;;;;;;;14.97;100.00;101003.84;5589943;31;33889;-68
2023/09/08 04:36:13;;;;;;;12.55;6.72;;;;;;;15.07;100.00;101007.09;5589241;31;33811;-68
2023/09/08 04:39:16;;;;;;;12.13;6.43;;;;;;;15.06;100.00;101006.28;5589718;31;34015;-68
2023/09/08 04:42:19;;;;;;;11.38;6.68;;;;;;;15.07;100.00;101013.28;5589620;31;34031;-68
2023/09/08 04:45:22;;;;;;;20.80;9.40;;;;;;;15.10;100.00;101018.25;5589338;31;33857;-68
2023/09/08 04:48:25;;;;;;;12.37;6.80;;;;;;;15.16;100.00;101016.69;5589973;31;33808;-68
2023/09/08 04:51:31;;;;;;;13.90;6.82;;;;;;;15.28;100.00;101025.97;5589164;31;34036;-67
2023/09/08 04:54:34;;;;;;;11.45;6.80;;;;;;;15.35;100.00;101021.53;5589535;31;34460;-67
2023/09/08 04:57:37;;;;;;;14.30;6.72;;;;;;;15.39;100.00;101019.34;5589726;31;34604;-68
2023/09/08 05:00:40;;;;;;;15.02;6.72;;;;;;;15.42;100.00;101021.62;5589405;31;34073;-67
2023/09/08 05:03:43;;;;;;;11.60;7.12;;;;;;;15.49;100.00;101014.53;5589232;31;34052;-68
2023/09/08 05:06:47;;;;;;;23.15;7.90;;;;;;;15.51;100.00;101015.22;5589394;31;34556;-67
2023/09/08 05:09:50;;;;;;;16.25;6.85;;;;;;;15.76;100.00;101016.59;5589553;31;33886;-67
2023/09/08 05:12:54;;;;;;;11.07;6.65;;;;;;;15.82;100.00;101020.37;5589148;31;34790;-67
2023/09/08 05:16:10;;;;;;;12.30;6.68;;;;;;;15.80;100.00;101020.53;5589635;31;34537;-66
2023/09/08 05:19:15;;;;;;;14.45;7.10;;;;;;;15.81;100.00;101024.06;5589199;31;34594;-68
2023/09/08 05:22:17;;;;;;;10.57;6.90;;;;;;;15.90;100.00;101028.28;5589648;31;34531;-67
2023/09/08 05:25:21;;;;;;;19.23;6.93;;;;;;;15.92;100.00;101027.09;5588980;31;33131;-68
2023/09/08 05:28:25;;;;;;;13.00;6.80;;;;;;;16.04;100.00;101033.63;5588312;31;34538;-68
2023/09/08 05:31:28;;;;;;;13.23;6.75;;;;;;;16.16;100.00;101033.97;5589071;31;34399;-68
2023/09/08 05:34:31;;;;;;;17.70;7.43;;;;;;;16.26;100.00;101029.16;5589319;31;33839;-67
2023/09/08 05:37:34;;;;;;;12.48;6.47;;;;;;;16.36;100.00;101039.56;5588787;31;34676;-67
2023/09/08 05:40:38;;;;;;;18.15;7.22;;;;;;;16.45;100.00;101038.41;5588717;31;33974;-68
2023/09/08 05:43:41;;;;;;;15.68;6.53;;;;;;;16.57;100.00;101030.69;5588655;31;34175;-68
2023/09/08 05:46:44;;;;;;;13.27;6.72;;;;;;;16.88;100.00;101037.44;5587327;31;33219;-67
2023/09/08 05:49:48;;;;;;;15.48;7.05;;;;;;;16.97;100.00;101038.13;5586749;31;34124;-67
2023/09/08 05:52:51;;;;;;;13.05;6.90;;;;;;;16.94;100.00;101038.50;5587890;31;34096;-67
2023/09/08 05:55:55;;;;;;;20.50;6.80;;;;;;;16.98;100.00;101031.75;5587448;31;33821;-67
2023/09/08 05:58:58;;;;;;;18.27;7.25;;;;;;;17.09;100.00;101027.72;5588644;31;34804;-67
2023/09/08 06:02:01;;;;;;;9.45;6.78;;;;;;;17.19;100.00;101034.38;5588605;31;33805;-67
2023/09/08 06:05:04;;;;;;;12.98;6.97;;;;;;;17.37;100.00;101036.56;5588736;31;34472;-67
2023/09/08 06:08:08;;;;;;;16.52;7.22;;;;;;;17.49;100.00;101035.00;5588595;31;34205;-67
2023/09/08 06:11:12;;;;;;;14.90;6.85;;;;;;;17.55;100.00;101044.94;5587652;31;34592;-67
2023/09/08 06:14:15;;;;;;;13.10;6.68;;;;;;;17.71;100.00;101049.19;5588177;31;35148;-67
2023/09/08 06:17:20;;;;;;;13.15;6.30;;;;;;;17.90;100.00;101051.16;5588267;31;34564;-67
2023/09/08 06:20:24;;;;;;;15.52;6.40;;;;;;;17.95;100.00;101050.56;5587531;31;34564;-67
2023/09/08 06:23:28;;;;;;;13.02;6.72;;;;;;;18.15;100.00;101056.84;5587620;31;34600;-68
2023/09/08 06:26:31;;;;;;;19.23;6.28;;;;;;;18.29;100.00;101055.88;5588323;31;34494;-67
2023/09/08 06:29:34;;;;;;;24.15;6.07;;;;;;;18.51;100.00;101060.06;5587726;31;34775;-67
2023/09/08 06:32:37;;;;;;;15.75;6.62;;;;;;;18.76;100.00;101054.97;5587916;31;34048;-67
2023/09/08 06:35:41;;;;;;;16.20;6.55;;;;;;;19.41;100.00;101056.03;5587757;31;33880;-67
2023/09/08 06:38:44;;;;;;;14.63;6.03;;;;;;;19.93;100.00;101063.16;5587647;31;34440;-67
2023/09/08 06:41:47;;;;;;;13.48;5.87;;;;;;;20.78;100.00;101060.06;5587054;31;34003;-68
2023/09/08 06:44:50;;;;;;;16.00;6.20;;;;;;;21.65;100.00;101067.22;5586827;31;34265;-68
2023/09/08 06:47:54;;;;;;;15.38;5.43;;;;;;;22.00;100.00;101063.97;5587432;31;33849;-67
2023/09/08 06:50:58;;;;;;;13.85;5.60;;;;;;;22.62;100.00;101061.91;5587799;31;34639;-68
2023/09/08 06:54:03;;;;;;;13.45;5.22;;;;;;;23.03;99.42;101064.63;5586810;31;34523;-68
2023/09/08 06:57:06;;;;;;;39.60;7.35;;;;;;;22.69;97.15;101057.22;5587527;31;34597;-69
2023/09/08 07:00:13;;;;;;;13.40;5.10;;;;;;;23.72;84.92;101055.72;5589209;31;33833;-68
2023/09/08 07:03:17;;;;;;;18.80;5.55;;;;;;;23.01;88.79;101064.03;5590434;31;34189;-68
2023/09/08 07:06:22;;;;;;;13.40;4.57;;;;;;;23.99;83.19;101055.19;5589345;31;33137;-67
2023/09/08 07:09:26;;;;;;;12.70;5.03;;;;;;;23.08;84.57;101051.22;5590188;31;34003;-67
2023/09/08 07:12:31;;;;;;;10.43;5.00;;;;;;;23.07;86.90;101060.41;5590382;31;34588;-69
2023/09/08 07:15:33;;;;;;;9.95;4.90;;;;;;;23.92;77.20;101055.31;5590150;31;34081;-68
2023/09/08 07:18:38;;;;;;;11.55;4.90;;;;;;;23.50;79.70;101048.44;5590221;31;34611;-68
2023/09/08 07:21:41;;;;;;;8.32;4.85;;;;;;;23.32;81.41;101054.78;5590286;31;33834;-68
2023/09/08 07:24:44;;;;;;;14.52;4.85;;;;;;;24.20;73.70;101038.31;5589696;31;34488;-68
2023/09/08 07:27:52;;;;;;;11.38;5.10;;;;;;;23.71;77.41;101045.97;5589300;31;33784;-68
2023/09/08 07:31:06;;;;;;;8.77;4.78;;;;;;;24.92;67.23;101035.84;5589965;31;34160;-68
2023/09/08 07:34:10;;;;;;;9.65;4.90;;;;;;;26.15;61.67;101034.59;5589949;31;34510;-69
2023/09/08 07:37:13;;;;;;;8.27;4.80;;;;;;;27.01;58.71;101038.25;5589439;31;34488;-69
2023/09/08 07:40:19;;;;;;;10.30;4.30;;;;;;;26.75;56.87;101038.00;5590388;31;34083;-70
2023/09/08 07:43:22;;;;;;;8.98;4.65;;;;;;;28.35;52.94;101033.00;5590281;31;34536;-69
2023/09/08 07:46:25;;;;;;;14.02;4.95;;;;;;;28.35;50.91;101035.72;5589734;31;34024;-69
2023/09/08 07:49:33;;;;;;;12.77;4.85;;;;;;;28.51;49.51;101025.66;5589843;31;33947;-69
2023/09/08 07:52:36;;;;;;;9.55;4.80;;;;;;;28.16;50.01;101023.66;5590027;31;33814;-69
2023/09/08 07:55:39;;;;;;;12.95;4.57;;;;;;;29.00;48.63;101028.69;5590123;31;33935;-69
2023/09/08 07:58:41;;;;;;;15.77;4.75;;;;;;;28.58;49.39;101028.09;5589897;31;33805;-69
2023/09/08 08:01:44;;;;;;;9.13;5.00;;;;;;;29.38;48.06;101027.31;5589856;31;33827;-68
2023/09/08 08:04:47;;;;;;;12.43;5.20;;;;;;;27.86;51.49;101031.69;5588743;31;34617;-69
2023/09/08 08:07:51;;;;;;;96.85;7.10;;;;;;;27.60;52.13;101028.84;5589691;31;34766;-70
2023/09/08 08:11:17;;;;;;;12.02;5.43;;;;;;;29.71;48.03;101034.88;5588114;31;34181;-69
2023/09/08 08:14:40;;;;;;;11.00;5.00;;;;;;;29.23;47.88;101033.59;5588901;31;34132;-69
2023/09/08 08:17:43;;;;;;;11.90;5.35;;;;;;;30.28;44.77;101028.06;5589650;31;34057;-69
2023/09/08 08:21:03;;;;;;;11.85;5.07;;;;;;;29.18;47.54;101021.84;5589630;31;33891;-71
2023/09/08 08:24:06;;;;;;;13.18;5.28;;;;;;;30.95;43.89;101021.84;5589688;31;33832;-69
2023/09/08 08:27:09;;;;;;;8.95;5.20;;;;;;;29.64;45.84;101031.62;5588933;31;34589;-68
2023/09/08 08:30:12;;;;;;;13.65;5.10;;;;;;;28.50;48.27;101029.47;5589544;31;33881;-69
2023/09/08 08:33:15;;;;;;;11.90;4.82;;;;;;;30.00;46.13;101024.13;5589350;31;33928;-69
2023/09/08 08:36:18;;;;;;;8.05;4.55;;;;;;;31.64;41.35;101028.88;5589439;31;33805;-69
2023/09/08 08:39:20;;;;;;;12.75;5.03;;;;;;;30.34;43.72;101021.47;5589522;31;35306;-69
2023/09/08 08:42:33;;;;;;;11.43;4.60;;;;;;;29.75;45.86;101016.81;5589114;31;34133;-69
2023/09/08 08:45:40;;;;;;;14.10;4.47;;;;;;;30.28;44.53;101011.66;5589190;31;34497;-69
2023/09/08 08:48:45;;;;;;;33.90;5.28;;;;;;;31.04;43.23;101009.19;5589063;31;35200;-71
2023/09/08 08:51:51;;;;;;;29.90;5.18;;;;;;;29.87;46.21;101002.78;5589414;31;34522;-69
2023/09/08 08:54:54;;;;;;;12.40;4.78;;;;;;;30.91;44.33;101009.00;5589558;31;34412;-69
2023/09/08 08:58:06;;;;;;;8.43;4.78;;;;;;;30.61;43.60;101010.06;5589412;31;33832;-69
2023/09/08 09:01:11;;;;;;;13.35;5.03;;;;;;;29.86;45.73;101012.12;5589314;31;34563;-69
2023/09/08 09:04:15;;;;;;;20.42;5.18;;;;;;;28.31;48.54;101006.50;5589375;31;34237;-69
2023/09/08 09:07:20;;;;;;;6.97;4.60;;;;;;;27.57;52.51;100996.69;5589249;31;34001;-70
2023/09/08 09:10:23;;;;;;;22.87;5.40;;;;;;;26.93;54.78;100998.69;5589701;31;33933;-69
2023/09/08 09:13:26;;;;;;;14.77;5.03;;;;;;;25.84;62.21;100998.09;5588920;31;34525;-70
2023/09/08 09:16:29;;;;;;;14.30;5.15;;;;;;;25.38;62.79;100991.19;5589268;31;34821;-70
2023/09/08 09:19:33;;;;;;;13.68;5.20;;;;;;;25.14;63.77;100990.59;5589177;31;34029;-68
2023/09/08 09:22:39;;;;;;;44.13;6.57;;;;;;;24.53;68.60;100986.03;5588786;31;34017;-68
2023/09/08 09:25:43;;;;;;;20.30;5.85;;;;;;;24.56;71.14;100980.94;5589062;31;34106;-68
2023/09/08 09:28:48;;;;;;;13.45;5.30;;;;;;;24.27;73.47;100971.19;5588833;31;33843;-68
2023/09/08 09:32:05;;;;;;;13.50;5.28;;;;;;;24.36;73.39;100977.03;5589010;31;34524;-68
2023/09/08 09:35:08;;;;;;;15.27;5.65;;;;;;;24.39;70.56;100977.41;5588755;31;34077;-68
2023/09/08 09:38:12;;;;;;;15.30;5.53;;;;;;;24.42;71.89;100968.75;5589026;31;34500;-68
2023/09/08 09:41:15;;;;;;;13.80;5.72;;;;;;;24.38;72.56;100974.91;5588628;31;33797;-68
2023/09/08 09:44:19;;;;;;;15.25;5.65;;;;;;;24.19;73.04;100972.41;5588551;31;34189;-68
2023/09/08 09:47:26;;;;;;;12.55;6.05;;;;;;;24.21;73.79;100969.44;5588682;31;33945;-66
2023/09/08 09:50:39;;;;;;;11.95;5.37;;;;;;;24.32;72.38;100978.59;5589929;31;34722;-68
2023/09/08 09:53:42;;;;;;;9.50;5.12;;;;;;;24.47;72.12;100966.13;5588352;31;33865;-69
2023/09/08 09:56:50;;;;;;;9.45;4.75;;;;;;;24.72;68.17;100968.47;5588818;31;34710;-68
2023/09/08 09:59:54;;;;;;;8.68;4.72;;;;;;;24.75;64.38;100967.94;5588946;31;33978;-70
2023/09/08 10:02:58;;;;;;;13.50;5.28;;;;;;;25.01;63.19;100964.59;5589188;31;33856;-70
2023/09/08 10:06:03;;;;;;;8.50;5.20;;;;;;;24.98;61.21;100967.00;5588971;31;33488;-69
2023/09/08 10:09:13;;;;;;;11.18;4.80;;;;;;;25.10;60.16;100965.84;5588809;31;33810;-68
2023/09/08 10:12:19;;;;;;;11.40;5.15;;;;;;;25.20;60.72;100965.16;5587780;31;33919;-68
2023/09/08 10:15:23;;;;;;;8.20;5.55;;;;;;;25.19;61.75;100971.66;5588616;31;33797;-68
2023/09/08 10:18:29;;;;;;;9.68;5.40;;;;;;;25.07;63.60;100962.81;5588439;31;33864;-69
2023/09/08 10:21:35;;;;;;;7.18;4.97;;;;;;;25.03;63.65;100964.34;5588308;31;35010;-68
2023/09/08 10:24:40;;;;;;;11.85;4.75;;;;;;;25.21;57.93;100964.09;5587933;31;33922;-69
2023/09/08 10:27:44;;;;;;;11.15;5.20;;;;;;;25.48;56.02;100956.84;5587289;31;33944;-69
2023/09/08 10:30:48;;;;;;;9.93;4.57;;;;;;;25.55;56.16;100945.84;5587981;31;33895;-68
2023/09/08 10:33:53;;;;;;;29.80;5.85;;;;;;;25.70;55.01;100953.34;5588257;31;33772;-67
2023/09/08 10:36:56;;;;;;;13.13;5.50;;;;;;;25.67;55.32;100938.34;5590520;31;33861;-68
2023/09/08 10:40:21;;;;;;;12.00;5.32;;;;;;;25.71;55.68;100946.81;5590336;31;33987;-69
2023/09/08 10:43:24;;;;;;;8.45;4.12;;;;;;;26.02;54.22;100948.00;5590527;31;34014;-69
2023/09/08 10:46:29;;;;;;;10.35;4.07;;;;;;;26.34;50.95;100946.16;5590531;31;35337;-70
2023/09/08 10:49:35;;;;;;;13.93;4.37;;;;;;;27.03;47.83;100943.47;5590659;31;34612;-69
2023/09/08 10:52:37;;;;;;;8.40;4.32;;;;;;;30.24;40.03;100950.38;5589549;31;34680;-68
2023/09/08 10:55:50;;;;;;;8.02;4.07;;;;;;;32.09;35.46;100953.38;5590209;31;33835;-69
2023/09/08 10:59:13;;;;;;;7.28;3.87;;;;;;;35.46;30.17;100955.81;5589983;31;32135;-69
2023/09/08 11:02:33;;;;;;;7.22;3.78;;;;;;;35.83;29.09;100948.94;5590310;31;33832;-69
2023/09/08 11:05:36;;;;;;;8.25;4.00;;;;;;;36.42;27.61;100953.69;5590389;31;33886;-69
2023/09/08 11:08:44;;;;;;;7.30;3.75;;;;;;;33.69;30.71;100940.97;5590730;31;33788;-69
2023/09/08 11:11:47;;;;;;;15.63;3.72;;;;;;;36.33;27.96;100936.31;5590236;31;34630;-70
2023/09/08 11:14:51;;;;;;;5.85;3.60;;;;;;;37.51;25.82;100936.59;5590009;31;33853;-68
2023/09/08 11:17:53;;;;;;;13.45;4.15;;;;;;;36.39;26.95;100939.72;5589983;31;34944;-68
2023/09/08 11:20:57;;;;;;;8.90;3.65;;;;;;;35.25;28.15;100930.75;5589915;31;32478;-69
2023/09/08 11:24:04;;;;;;;4.93;3.62;;;;;;;36.98;26.19;100937.97;5590402;31;34006;-68
2023/09/08 11:27:07;;;;;;;6.40;3.12;;;;;;;36.13;26.36;100935.03;5590584;31;33819;-69
2023/09/08 11:30:12;;;;;;;6.32;3.58;;;;;;;38.78;24.47;100930.34;5590620;31;34525;-69
2023/09/08 11:33:16;;;;;;;6.20;3.30;;;;;;;37.11;25.49;100912.06;5590202;31;33777;-69
2023/09/08 11:36:19;;;;;;;6.20;3.50;;;;;;;36.67;25.88;100912.53;5590091;31;34637;-70
2023/09/08 11:39:25;;;;;;;4.37;3.00;;;;;;;41.13;21.68;100914.81;5589827;31;33910;-71
2023/09/08 11:42:29;;;;;;;5.43;3.17;;;;;;;43.29;19.57;100921.19;5589915;31;33731;-70
2023/09/08 11:45:36;;;;;;;6.82;2.97;;;;;;;42.95;19.20;100911.84;5575207;31;34447;-69
2023/09/08 11:48:39;;;;;;;6.60;3.10;;;;;;;43.04;18.80;100915.19;5589929;31;34239;-70
2023/09/08 11:51:45;;;;;;;3.75;3.20;;;;;;;43.48;18.65;100903.53;5590165;31;34802;-69
2023/09/08 11:54:48;;;;;;;9.82;3.10;;;;;;;43.49;18.41;100908.75;5589417;31;34006;-70
2023/09/08 11:58:09;;;;;;;4.78;3.35;;;;;;;44.17;18.65;100902.03;5590391;31;34079;-69
2023/09/08 12:01:12;;;;;;;11.07;3.17;;;;;;;43.78;19.03;100903.53;5589841;31;33834;-67
2023/09/08 12:04:20;;;;;;;10.23;3.28;;;;;;;43.75;18.72;100896.72;5589962;31;34117;-67
2023/09/08 12:07:23;;;;;;;7.37;3.08;;;;;;;38.14;23.13;100880.13;5589634;31;33882;-68
2023/09/08 12:10:26;;;;;;;5.37;3.37;;;;;;;38.52;23.41;100880.75;5589877;31;33940;-67
2023/09/08 12:13:29;;;;;;;5.43;3.50;;;;;;;37.44;23.96;100871.50;5589578;31;34788;-69
2023/09/08 12:16:32;;;;;;;5.37;3.12;;;;;;;40.73;21.81;100870.44;5589696;31;33774;-68
2023/09/08 12:19:37;;;;;;;8.65;3.50;;;;;;;43.42;19.36;100868.72;5589997;31;32776;-68
2023/09/08 12:22:48;;;;;;;7.07;3.45;;;;;;;40.35;21.00;100868.25;5590233;31;33920;-69
2023/09/08 12:25:52;;;;;;;4.90;3.20;;;;;;;41.74;19.90;100866.06;5589871;31;34669;-67
2023/09/08 12:28:56;;;;;;;4.70;3.70;;;;;;;42.77;19.08;100866.09;5589542;31;34661;-68
2023/09/08 12:31:58;;;;;;;6.15;3.42;;;;;;;43.59;17.81;100860.59;5589785;31;34910;-68
2023/09/08 12:35:04;;;;;;;7.43;3.12;;;;;;;43.28;18.49;100858.16;5589740;31;33948;-67
2023/09/08 12:38:07;;;;;;;7.10;3.37;;;;;;;40.81;20.25;100852.75;5589458;31;33775;-67
2023/09/08 12:41:10;;;;;;;12.43;3.05;;;;;;;41.87;19.63;100850.84;5589807;31;34475;-68
2023/09/08 12:44:13;;;;;;;4.57;3.20;;;;;;;45.35;16.82;100852.31;5589565;31;33862;-69
2023/09/08 12:47:16;;;;;;;4.45;3.03;;;;;;;42.79;18.27;100844.22;5589687;31;34576;-68
2023/09/08 12:50:19;;;;;;;5.97;2.78;;;;;;;45.25;16.49;100852.25;5589612;31;34611;-68
2023/09/08 12:53:23;;;;;;;5.30;3.03;;;;;;;41.33;19.36;100839.69;5589626;31;33933;-68
2023/09/08 12:56:26;;;;;;;4.68;3.05;;;;;;;41.23;19.48;100838.28;5589253;31;34224;-69
2023/09/08 12:59:29;;;;;;;7.32;3.17;;;;;;;43.31;18.35;100833.06;5589199;31;34649;-69
2023/09/08 13:02:31;;;;;;;10.93;3.17;;;;;;;45.23;16.69;100832.22;5589555;31;33786;-69
2023/09/08 13:05:34;;;;;;;9.95;3.00;;;;;;;44.49;17.43;100829.66;5589201;31;34103;-69
2023/09/08 13:08:38;;;;;;;5.87;2.87;;;;;;;42.73;18.39;100840.13;5589441;31;34051;-67
2023/09/08 13:11:42;;;;;;;4.20;3.00;;;;;;;42.36;18.17;100823.13;5589850;31;34055;-67
2023/09/08 13:14:45;;;;;;;4.47;2.85;;;;;;;39.07;20.72;100821.94;5589383;31;33893;-69
2023/09/08 13:17:48;;;;;;;5.03;3.25;;;;;;;41.90;19.03;100816.66;5589523;31;34438;-68
2023/09/08 13:20:51;;;;;;;5.37;3.22;;;;;;;42.02;19.09;100816.50;5589064;31;33931;-68
2023/09/08 13:23:54;;;;;;;5.75;2.75;;;;;;;42.62;18.72;100813.97;5589338;31;33895;-67
2023/09/08 13:26:56;;;;;;;4.78;3.20;;;;;;;42.15;19.21;100804.00;5589224;31;34046;-68
2023/09/08 13:30:10;;;;;;;4.90;3.28;;;;;;;39.93;20.16;100803.13;5588938;31;34029;-68
2023/09/08 13:33:12;;;;;;;7.85;2.83;;;;;;;42.35;18.19;100813.97;5588919;31;35330;-68
2023/09/08 13:36:15;;;;;;;4.30;3.20;;;;;;;40.99;19.13;100803.09;5589015;31;33821;-67
2023/09/08 13:39:18;;;;;;;10.00;3.53;;;;;;;38.99;20.87;100799.87;5588360;31;33822;-67
2023/09/08 13:42:21;;;;;;;7.50;3.25;;;;;;;38.99;20.83;100800.69;5588896;31;34441;-68
2023/09/08 13:45:24;;;;;;;9.40;3.20;;;;;;;40.76;18.66;100789.06;5588908;31;34495;-67
2023/09/08 13:48:27;;;;;;;6.75;3.03;;;;;;;38.13;21.60;100785.09;5589336;31;34757;-67
2023/09/08 13:51:31;;;;;;;5.18;3.47;;;;;;;39.05;21.26;100795.72;5589026;31;34128;-68
2023/09/08 13:54:36;;;;;;;7.18;2.92;;;;;;;38.40;21.46;100788.38;5588858;31;34039;-68
2023/09/08 13:57:42;;;;;;;11.10;3.12;;;;;;;40.64;19.54;100774.44;5588522;31;34118;-70
2023/09/08 14:00:50;;;;;;;113.80;7.50;;;;;;;43.58;17.54;100782.72;5588804;31;34808;-70
2023/09/08 14:03:56;;;;;;;5.62;2.78;;;;;;;44.21;16.78;100777.00;5588487;31;33895;-69
2023/09/08 14:07:06;;;;;;;5.45;3.03;;;;;;;42.39;17.69;100775.78;5588088;31;34610;-70